createdAt,value
2023-04-09T00:00:12.723Z,19.10
2023-04-09T00:02:39.449Z,17.20
2023-04-09T00:05:07.507Z,18.70
2023-04-09T00:07:34.317Z,17.07
2023-04-09T00:10:00.999Z,16.53
2023-04-09T00:12:27.687Z,17.37
2023-04-09T00:14:54.348Z,16.97
2023-04-09T00:17:21.630Z,17.03
2023-04-09T00:19:48.447Z,17.90
2023-04-09T00:22:15.809Z,14.47
2023-04-09T00:24:42.413Z,13.97
2023-04-09T00:27:08.959Z,15.40
2023-04-09T00:29:35.571Z,18.33
2023-04-09T00:32:02.366Z,15.83
2023-04-09T00:34:29.066Z,13.63
2023-04-09T00:36:55.852Z,15.30
2023-04-09T00:39:22.460Z,18.37
2023-04-09T00:41:49.061Z,12.80
2023-04-09T00:44:15.804Z,16.00
2023-04-09T00:46:42.443Z,13.43
2023-04-09T00:49:09.135Z,18.63
2023-04-09T00:51:36.776Z,14.53
2023-04-09T00:54:03.500Z,17.13
2023-04-09T00:56:30.315Z,14.03
2023-04-09T00:58:57.224Z,12.87
2023-04-09T01:01:23.851Z,14.93
2023-04-09T01:03:51.194Z,12.37
2023-04-09T01:06:38.564Z,12.97
2023-04-09T01:09:23.426Z,10.13
2023-04-09T01:12:08.514Z,11.97
2023-04-09T01:14:41.800Z,10.87
2023-04-09T01:17:17.323Z,10.03
2023-04-09T01:20:05.471Z,10.73
2023-04-09T01:22:47.518Z,11.27
2023-04-09T01:25:26.509Z,13.90
2023-04-09T01:28:08.366Z,11.53
2023-04-09T01:30:35.410Z,13.37
2023-04-09T01:33:04.347Z,11.33
2023-04-09T01:35:31.101Z,10.87
2023-04-09T01:37:58.586Z,12.87
2023-04-09T01:40:25.303Z,13.63
2023-04-09T01:42:53.734Z,12.47
2023-04-09T01:45:21.103Z,14.53
2023-04-09T01:47:48.136Z,14.63
2023-04-09T01:50:15.347Z,14.47
2023-04-09T01:52:42.288Z,11.87
2023-04-09T01:55:09.126Z,12.23
2023-04-09T01:57:35.975Z,11.60
2023-04-09T02:00:02.750Z,10.70
2023-04-09T02:02:40.714Z,11.77
2023-04-09T02:05:10.950Z,11.60
2023-04-09T02:07:45.580Z,9.63
2023-04-09T02:10:13.795Z,12.47
2023-04-09T02:12:45.446Z,11.43
2023-04-09T02:15:12.829Z,13.60
2023-04-09T02:17:39.623Z,12.03
2023-04-09T02:20:07.530Z,16.50
2023-04-09T02:22:34.120Z,15.47
2023-04-09T02:25:00.727Z,12.77
2023-04-09T02:27:27.347Z,12.90
2023-04-09T02:29:53.995Z,9.50
2023-04-09T02:32:20.581Z,13.03
2023-04-09T02:34:47.315Z,11.57
2023-04-09T02:37:13.889Z,12.53
2023-04-09T02:39:40.526Z,13.53
2023-04-09T02:42:08.031Z,10.70
2023-04-09T02:44:35.003Z,10.33
2023-04-09T02:47:04.468Z,13.33
2023-04-09T02:49:31.065Z,11.17
2023-04-09T02:51:57.689Z,10.07
2023-04-09T02:54:24.357Z,11.93
2023-04-09T02:56:51.011Z,12.30
2023-04-09T02:59:17.626Z,9.93
2023-04-09T03:01:44.291Z,10.07
2023-04-09T03:04:11.049Z,8.47
2023-04-09T03:06:37.680Z,11.03
2023-04-09T03:09:04.386Z,10.53
2023-04-09T03:11:30.999Z,12.50
2023-04-09T03:13:57.599Z,11.83
2023-04-09T03:16:27.083Z,9.53
2023-04-09T03:18:53.981Z,10.73
2023-04-09T03:21:21.096Z,8.10
2023-04-09T03:23:47.652Z,10.90
2023-04-09T03:26:14.300Z,10.37
2023-04-09T03:28:40.971Z,13.43
2023-04-09T03:31:07.686Z,14.47
2023-04-09T03:33:34.474Z,13.80
2023-04-09T03:36:01.206Z,13.40
2023-04-09T03:38:27.835Z,11.13
2023-04-09T03:40:56.042Z,10.10
2023-04-09T03:43:22.618Z,9.07
2023-04-09T03:45:49.220Z,9.93
2023-04-09T03:48:15.944Z,9.13
2023-04-09T03:50:42.919Z,10.10
2023-04-09T03:53:09.601Z,10.07
2023-04-09T03:55:37.674Z,9.07
2023-04-09T03:58:04.336Z,8.73
2023-04-09T04:00:30.906Z,9.57
2023-04-09T04:02:57.754Z,10.93
2023-04-09T04:05:27.795Z,9.23
2023-04-09T04:07:55.020Z,9.33
2023-04-09T04:10:21.644Z,10.47
2023-04-09T04:12:48.351Z,11.43
2023-04-09T04:15:15.057Z,14.07
2023-04-09T04:17:41.760Z,11.80
2023-04-09T04:20:08.985Z,10.20
2023-04-09T04:22:35.878Z,9.80
2023-04-09T04:25:03.722Z,9.30
2023-04-09T04:27:30.422Z,10.23
2023-04-09T04:29:59.042Z,10.87
2023-04-09T04:32:26.189Z,15.17
2023-04-09T04:34:52.811Z,10.80
2023-04-09T04:37:19.625Z,12.60
2023-04-09T04:39:46.179Z,13.43
2023-04-09T04:42:12.820Z,13.43
2023-04-09T04:44:39.434Z,12.17
2023-04-09T04:47:06.053Z,13.20
2023-04-09T04:49:32.777Z,38.73
2023-04-09T04:51:59.405Z,22.03
2023-04-09T04:54:26.192Z,22.60
2023-04-09T04:56:52.837Z,28.03
2023-04-09T04:59:19.575Z,27.63
2023-04-09T05:01:46.289Z,20.67
2023-04-09T05:04:12.893Z,26.97
2023-04-09T05:06:39.500Z,20.40
2023-04-09T05:09:06.295Z,20.87
2023-04-09T05:11:32.893Z,20.03
2023-04-09T05:13:59.545Z,18.03
2023-04-09T05:16:26.143Z,16.60
2023-04-09T05:18:52.890Z,12.73
2023-04-09T05:21:19.681Z,17.23
2023-04-09T05:23:46.504Z,16.60
2023-04-09T05:26:13.275Z,18.93
2023-04-09T05:28:39.872Z,14.07
2023-04-09T05:31:12.853Z,13.50
2023-04-09T05:33:39.799Z,20.97
2023-04-09T05:36:06.817Z,19.60
2023-04-09T05:38:33.620Z,16.27
2023-04-09T05:41:00.740Z,19.23
2023-04-09T05:43:27.391Z,19.40
2023-04-09T05:45:54.024Z,17.70
2023-04-09T05:48:21.191Z,21.03
2023-04-09T05:50:55.425Z,17.13
2023-04-09T05:53:22.602Z,13.00
2023-04-09T05:55:51.740Z,17.10
2023-04-09T05:58:21.701Z,18.77
2023-04-09T06:00:48.390Z,15.73
2023-04-09T06:03:15.319Z,12.83
2023-04-09T06:05:42.077Z,15.77
2023-04-09T06:08:09.175Z,14.67
2023-04-09T06:10:35.870Z,14.37
2023-04-09T06:13:02.537Z,21.97
2023-04-09T06:15:29.162Z,16.90
2023-04-09T06:17:57.515Z,17.63
2023-04-09T06:20:25.941Z,17.53
2023-04-09T06:22:52.710Z,20.07
2023-04-09T06:25:19.280Z,22.43
2023-04-09T06:27:46.074Z,13.63
2023-04-09T06:30:12.911Z,15.10
2023-04-09T06:32:50.990Z,19.20
2023-04-09T06:35:21.010Z,9.67
2023-04-09T06:37:47.597Z,14.30
2023-04-09T06:40:14.848Z,10.70
2023-04-09T06:42:41.521Z,10.43
2023-04-09T06:45:08.915Z,10.90
2023-04-09T06:47:36.369Z,12.00
2023-04-09T06:50:03.380Z,12.70
2023-04-09T06:52:30.336Z,10.70
2023-04-09T06:54:56.969Z,11.47
2023-04-09T06:57:23.630Z,11.20
2023-04-09T06:59:50.411Z,10.10
2023-04-09T07:02:17.199Z,12.63
2023-04-09T07:04:43.992Z,9.87
2023-04-09T07:07:10.692Z,12.17
2023-04-09T07:09:37.287Z,11.87
2023-04-09T07:12:03.919Z,8.73
2023-04-09T07:14:30.692Z,10.23
2023-04-09T07:16:57.287Z,11.07
2023-04-09T07:19:23.934Z,8.13
2023-04-09T07:21:51.015Z,11.27
2023-04-09T07:24:17.657Z,7.43
2023-04-09T07:26:44.261Z,11.83
2023-04-09T07:29:11.110Z,6.93
2023-04-09T07:31:37.799Z,8.53
2023-04-09T07:34:04.612Z,7.63
2023-04-09T07:36:31.893Z,10.83
2023-04-09T07:38:58.683Z,8.43
2023-04-09T07:41:25.293Z,8.20
2023-04-09T07:43:52.070Z,7.50
2023-04-09T07:46:20.844Z,9.77
2023-04-09T07:48:48.498Z,6.77
2023-04-09T07:51:15.381Z,9.93
2023-04-09T07:53:42.036Z,8.17
2023-04-09T07:56:08.773Z,6.03
2023-04-09T07:58:37.920Z,8.13
2023-04-09T08:01:04.815Z,8.23
2023-04-09T08:03:31.819Z,8.97
2023-04-09T08:05:58.675Z,7.13
2023-04-09T08:08:25.339Z,8.27
2023-04-09T08:10:52.166Z,7.07
2023-04-09T08:13:18.795Z,8.77
2023-04-09T08:15:45.390Z,6.83
2023-04-09T08:18:11.951Z,6.17
2023-04-09T08:20:44.892Z,5.77
2023-04-09T08:23:12.313Z,8.67
2023-04-09T08:25:38.961Z,8.13
2023-04-09T08:28:06.466Z,10.30
2023-04-09T08:30:34.340Z,6.73
2023-04-09T08:33:02.169Z,9.30
2023-04-09T08:35:31.136Z,8.80
2023-04-09T08:37:57.974Z,9.83
2023-04-09T08:40:24.873Z,6.87
2023-04-09T08:42:56.044Z,11.80
2023-04-09T08:45:22.921Z,8.57
2023-04-09T08:47:51.479Z,9.73
2023-04-09T08:50:18.515Z,8.77
2023-04-09T08:52:48.152Z,8.80
2023-04-09T08:55:14.924Z,9.70
2023-04-09T08:57:42.405Z,8.07
2023-04-09T09:00:09.714Z,8.10
2023-04-09T09:02:36.506Z,8.67
2023-04-09T09:05:03.224Z,10.80
2023-04-09T09:07:30.368Z,7.20
2023-04-09T09:10:03.349Z,7.70
2023-04-09T09:12:38.596Z,8.77
2023-04-09T09:15:15.956Z,7.83
2023-04-09T09:17:55.868Z,7.07
2023-04-09T09:20:23.405Z,7.00
2023-04-09T09:22:55.907Z,7.73
2023-04-09T09:25:24.794Z,7.33
2023-04-09T09:27:52.446Z,7.53
2023-04-09T09:30:26.958Z,8.07
2023-04-09T09:33:05.660Z,7.20
2023-04-09T09:35:50.180Z,7.93
2023-04-09T09:38:17.460Z,9.73
2023-04-09T09:40:44.691Z,12.03
2023-04-09T09:43:13.503Z,17.13
2023-04-09T09:45:43.172Z,11.13
2023-04-09T09:48:12.380Z,9.57
2023-04-09T09:50:43.443Z,6.60
2023-04-09T09:53:11.837Z,7.77
2023-04-09T09:55:40.626Z,7.70
2023-04-09T09:58:23.651Z,7.97
2023-04-09T10:00:52.074Z,8.23
2023-04-09T10:03:25.711Z,6.77
2023-04-09T10:05:53.558Z,5.57
2023-04-09T10:08:22.129Z,8.47
2023-04-09T10:10:50.416Z,7.63
2023-04-09T10:13:25.618Z,6.47
2023-04-09T10:15:53.333Z,6.93
2023-04-09T10:18:20.213Z,7.80
2023-04-09T10:20:56.192Z,7.57
2023-04-09T10:23:32.676Z,6.40
2023-04-09T10:25:59.428Z,8.17
2023-04-09T10:28:25.983Z,6.03
2023-04-09T10:30:53.845Z,8.23
2023-04-09T10:33:28.935Z,6.50
2023-04-09T10:36:05.749Z,6.53
2023-04-09T10:38:40.814Z,5.63
2023-04-09T10:41:15.156Z,9.17
2023-04-09T10:43:41.766Z,5.93
2023-04-09T10:46:29.341Z,7.37
2023-04-09T10:49:35.478Z,5.40
2023-04-09T10:52:04.863Z,6.50
2023-04-09T10:54:34.299Z,6.83
2023-04-09T10:57:18.175Z,6.17
2023-04-09T10:59:47.780Z,4.63
2023-04-09T11:02:35.637Z,9.07
2023-04-09T11:05:17.604Z,6.10
2023-04-09T11:07:48.440Z,4.97
2023-04-09T11:10:15.058Z,4.17
2023-04-09T11:12:43.081Z,5.63
2023-04-09T11:15:17.794Z,5.30
2023-04-09T11:17:44.914Z,5.50
2023-04-09T11:20:12.691Z,3.73
2023-04-09T11:22:39.372Z,3.93
2023-04-09T11:25:06.327Z,7.27
2023-04-09T11:27:38.132Z,5.30
2023-04-09T11:30:06.347Z,4.77
2023-04-09T11:32:34.368Z,5.17
2023-04-09T11:35:01.214Z,11.53
2023-04-09T11:37:28.172Z,10.47
2023-04-09T11:39:57.337Z,10.60
2023-04-09T11:42:25.893Z,13.03
2023-04-09T11:44:53.540Z,10.50
2023-04-09T11:47:21.273Z,6.83
2023-04-09T11:49:47.955Z,10.03
2023-04-09T11:52:16.753Z,6.00
2023-04-09T11:54:49.532Z,7.83
2023-04-09T11:57:16.348Z,4.77
2023-04-09T11:59:43.322Z,5.90
2023-04-09T12:02:10.214Z,4.03
2023-04-09T12:04:37.000Z,5.93
2023-04-09T12:07:08.081Z,6.10
2023-04-09T12:09:34.651Z,6.73
2023-04-09T12:12:02.208Z,5.40
2023-04-09T12:14:28.794Z,6.17
2023-04-09T12:16:55.581Z,5.67
2023-04-09T12:19:25.839Z,6.37
2023-04-09T12:21:54.764Z,6.40
2023-04-09T12:24:23.756Z,6.17
2023-04-09T12:26:50.844Z,4.70
2023-04-09T12:29:21.636Z,5.70
2023-04-09T12:31:48.448Z,7.03
2023-04-09T12:34:15.248Z,6.67
2023-04-09T12:36:41.927Z,11.57
2023-04-09T12:39:11.461Z,4.57
2023-04-09T12:41:38.085Z,9.23
2023-04-09T12:44:05.279Z,9.13
2023-04-09T12:46:32.663Z,9.93
2023-04-09T12:48:59.521Z,8.67
2023-04-09T12:51:26.170Z,6.77
2023-04-09T12:53:53.357Z,4.47
2023-04-09T12:56:20.376Z,4.37
2023-04-09T12:58:46.999Z,4.23
2023-04-09T13:01:13.785Z,4.67
2023-04-09T13:03:41.599Z,7.17
2023-04-09T13:06:08.790Z,5.50
2023-04-09T13:08:35.881Z,4.10
2023-04-09T13:11:02.948Z,3.77
2023-04-09T13:13:29.791Z,4.70
2023-04-09T13:15:56.490Z,5.10
2023-04-09T13:18:23.161Z,7.90
2023-04-09T13:20:49.754Z,4.27
2023-04-09T13:23:16.352Z,5.23
2023-04-09T13:25:42.993Z,3.97
2023-04-09T13:28:09.924Z,5.93
2023-04-09T13:30:36.663Z,4.77
2023-04-09T13:33:03.473Z,5.17
2023-04-09T13:35:30.729Z,5.53
2023-04-09T13:37:57.398Z,4.20
2023-04-09T13:40:24.120Z,3.43
2023-04-09T13:42:50.772Z,7.00
2023-04-09T13:45:18.109Z,4.10
2023-04-09T13:47:44.757Z,4.93
2023-04-09T13:50:13.211Z,3.43
2023-04-09T13:52:39.860Z,5.17
2023-04-09T13:55:07.670Z,4.40
2023-04-09T13:57:34.310Z,5.10
2023-04-09T14:00:05.484Z,6.43
2023-04-09T14:02:32.841Z,7.17
2023-04-09T14:05:00.197Z,4.50
2023-04-09T14:07:26.822Z,8.33
2023-04-09T14:09:53.543Z,4.40
2023-04-09T14:12:20.435Z,4.60
2023-04-09T14:14:47.176Z,4.33
2023-04-09T14:17:13.768Z,4.60
2023-04-09T14:19:40.453Z,7.17
2023-04-09T14:22:11.568Z,5.27
2023-04-09T14:24:40.181Z,6.30
2023-04-09T14:27:08.245Z,9.00
2023-04-09T14:29:35.288Z,8.13
2023-04-09T14:32:02.226Z,7.43
2023-04-09T14:34:31.413Z,10.17
2023-04-09T14:36:58.113Z,10.07
2023-04-09T14:39:24.860Z,9.50
2023-04-09T14:41:51.874Z,11.70
2023-04-09T14:44:18.506Z,14.50
2023-04-09T14:46:45.097Z,7.80
2023-04-09T14:49:11.808Z,7.00
2023-04-09T14:51:38.507Z,11.30
2023-04-09T14:54:05.176Z,10.07
2023-04-09T14:56:31.819Z,9.73
2023-04-09T14:58:58.515Z,8.13
2023-04-09T15:01:26.800Z,9.83
2023-04-09T15:03:53.705Z,7.93
2023-04-09T15:06:20.753Z,8.13
2023-04-09T15:08:47.426Z,9.53
2023-04-09T15:11:18.007Z,7.67
2023-04-09T15:13:44.714Z,8.70
2023-04-09T15:16:11.856Z,14.67
2023-04-09T15:18:38.565Z,12.50
2023-04-09T15:21:05.551Z,11.40
2023-04-09T15:23:32.235Z,10.57
2023-04-09T15:25:59.169Z,8.17
2023-04-09T15:28:25.752Z,9.73
2023-04-09T15:30:54.976Z,10.07
2023-04-09T15:33:21.540Z,9.37
2023-04-09T15:35:48.237Z,9.77
2023-04-09T15:38:14.928Z,8.80
2023-04-09T15:40:42.591Z,9.50
2023-04-09T15:43:09.172Z,11.17
2023-04-09T15:45:35.797Z,16.37
2023-04-09T15:48:02.450Z,9.97
2023-04-09T15:50:29.182Z,14.20
2023-04-09T15:52:56.284Z,8.27
2023-04-09T15:55:26.823Z,11.40
2023-04-09T15:57:55.133Z,9.60
2023-04-09T16:00:22.241Z,10.30
2023-04-09T16:02:48.780Z,10.93
2023-04-09T16:05:15.606Z,11.17
2023-04-09T16:07:42.833Z,10.50
2023-04-09T16:10:09.741Z,12.67
2023-04-09T16:12:36.445Z,15.33
2023-04-09T16:15:03.172Z,12.80
2023-04-09T16:17:30.789Z,11.63
2023-04-09T16:19:57.519Z,13.63
2023-04-09T16:22:24.165Z,12.30
2023-04-09T16:24:50.861Z,12.77
2023-04-09T16:27:17.540Z,14.67
2023-04-09T16:29:44.243Z,11.97
2023-04-09T16:32:11.031Z,15.67
2023-04-09T16:34:37.686Z,16.30
2023-04-09T16:37:04.317Z,15.57
2023-04-09T16:39:31.058Z,14.53
2023-04-09T16:42:02.173Z,9.97
2023-04-09T16:44:28.814Z,9.97
2023-04-09T16:46:56.450Z,9.53
2023-04-09T16:49:23.123Z,14.87
2023-04-09T16:51:51.886Z,9.80
2023-04-09T16:54:18.763Z,13.60
2023-04-09T16:56:45.391Z,10.50
2023-04-09T16:59:12.236Z,10.33
2023-04-09T17:01:38.877Z,8.67
2023-04-09T17:04:05.648Z,13.47
2023-04-09T17:06:32.322Z,17.43
2023-04-09T17:08:59.050Z,11.43
2023-04-09T17:11:25.852Z,14.67
2023-04-09T17:13:52.546Z,12.10
2023-04-09T17:16:19.174Z,16.40
2023-04-09T17:18:45.824Z,14.23
2023-04-09T17:21:12.632Z,12.27
2023-04-09T17:23:39.207Z,10.90
2023-04-09T17:26:08.835Z,10.97
2023-04-09T17:28:36.090Z,12.77
2023-04-09T17:31:02.761Z,14.10
2023-04-09T17:33:29.372Z,14.33
2023-04-09T17:35:57.660Z,12.27
2023-04-09T17:38:25.253Z,16.37
2023-04-09T17:40:53.539Z,14.33
2023-04-09T17:43:20.322Z,14.93
2023-04-09T17:45:46.999Z,15.50
2023-04-09T17:48:13.687Z,15.30
2023-04-09T17:50:40.538Z,18.50
2023-04-09T17:53:07.574Z,13.33
2023-04-09T17:55:34.300Z,14.67
2023-04-09T17:58:01.017Z,17.80
2023-04-09T18:00:27.793Z,15.27
2023-04-09T18:02:54.644Z,15.27
2023-04-09T18:05:23.000Z,19.40
2023-04-09T18:07:49.840Z,15.93
2023-04-09T18:10:16.612Z,14.97
2023-04-09T18:12:43.304Z,15.70
2023-04-09T18:15:10.479Z,18.90
2023-04-09T18:17:37.188Z,17.27
2023-04-09T18:20:04.099Z,20.23
2023-04-09T18:22:30.820Z,18.33
2023-04-09T18:24:57.513Z,12.57
2023-04-09T18:27:24.120Z,14.10
2023-04-09T18:29:50.690Z,13.00
2023-04-09T18:32:19.784Z,14.43
2023-04-09T18:34:47.776Z,13.73
2023-04-09T18:37:15.151Z,23.83
2023-04-09T18:39:41.877Z,20.13
2023-04-09T18:42:08.500Z,27.07
2023-04-09T18:44:37.541Z,17.33
2023-04-09T18:47:05.830Z,14.13
2023-04-09T18:49:33.619Z,16.30
2023-04-09T18:52:00.876Z,14.43
2023-04-09T18:54:27.794Z,10.10
2023-04-09T18:56:54.568Z,14.67
2023-04-09T18:59:21.903Z,12.53
2023-04-09T19:01:48.801Z,12.57
2023-04-09T19:04:15.691Z,18.37
2023-04-09T19:06:46.223Z,17.40
2023-04-09T19:09:12.954Z,16.83
2023-04-09T19:11:39.567Z,18.43
2023-04-09T19:14:06.249Z,20.93
2023-04-09T19:16:32.895Z,17.83
2023-04-09T19:18:59.640Z,20.57
2023-04-09T19:21:26.576Z,17.03
2023-04-09T19:23:53.227Z,15.90
2023-04-09T19:26:19.868Z,11.70
2023-04-09T19:28:46.904Z,26.13
2023-04-09T19:31:14.590Z,19.60
2023-04-09T19:33:41.264Z,18.90
2023-04-09T19:36:08.349Z,13.23
2023-04-09T19:38:35.010Z,14.97
2023-04-09T19:41:01.618Z,13.93
2023-04-09T19:43:28.279Z,21.37
2023-04-09T19:45:54.959Z,15.40
2023-04-09T19:48:21.725Z,18.33
2023-04-09T19:50:49.080Z,21.07
2023-04-09T19:53:15.811Z,23.93
2023-04-09T19:55:42.448Z,26.73
2023-04-09T19:58:09.079Z,20.60
2023-04-09T20:00:37.026Z,11.00
2023-04-09T20:03:05.802Z,8.80
2023-04-09T20:05:32.771Z,9.43
2023-04-09T20:07:59.473Z,10.50
2023-04-09T20:10:26.245Z,9.37
2023-04-09T20:12:52.830Z,8.43
2023-04-09T20:15:22.584Z,9.20
2023-04-09T20:17:50.606Z,11.87
2023-04-09T20:20:19.907Z,6.07
2023-04-09T20:22:55.602Z,8.03
2023-04-09T20:25:23.212Z,7.07
2023-04-09T20:27:52.438Z,8.20
2023-04-09T20:30:19.125Z,8.47
2023-04-09T20:32:45.779Z,9.93
2023-04-09T20:35:13.583Z,7.53
2023-04-09T20:37:40.385Z,10.23
2023-04-09T20:40:07.498Z,7.83
2023-04-09T20:42:34.160Z,8.13
2023-04-09T20:45:01.784Z,11.57
2023-04-09T20:47:28.787Z,7.77
2023-04-09T20:49:59.717Z,7.93
2023-04-09T20:52:29.424Z,8.27
2023-04-09T20:54:59.047Z,8.60
2023-04-09T20:57:25.642Z,6.87
2023-04-09T20:59:53.895Z,7.50
2023-04-09T21:02:21.302Z,7.33
2023-04-09T21:04:48.115Z,16.67
2023-04-09T21:07:14.813Z,7.17
2023-04-09T21:09:41.616Z,10.27
2023-04-09T21:12:08.257Z,12.20
2023-04-09T21:14:34.872Z,10.57
2023-04-09T21:17:02.308Z,12.93
2023-04-09T21:19:29.016Z,12.23
2023-04-09T21:21:55.586Z,7.63
2023-04-09T21:24:23.047Z,10.27
2023-04-09T21:26:52.006Z,8.90
2023-04-09T21:29:21.323Z,7.77
2023-04-09T21:31:48.949Z,10.83
2023-04-09T21:34:15.920Z,10.57
2023-04-09T21:36:44.910Z,11.07
2023-04-09T21:39:12.119Z,10.43
2023-04-09T21:41:38.953Z,8.50
2023-04-09T21:44:08.496Z,9.30
2023-04-09T21:46:37.043Z,7.83
2023-04-09T21:49:04.462Z,9.57
2023-04-09T21:51:32.324Z,7.70
2023-04-09T21:54:04.344Z,8.40
2023-04-09T21:56:31.987Z,8.60
2023-04-09T21:58:58.746Z,7.10
2023-04-09T22:01:29.311Z,8.13
2023-04-09T22:03:57.909Z,5.13
2023-04-09T22:06:24.713Z,7.60
2023-04-09T22:08:56.208Z,6.93
2023-04-09T22:11:28.488Z,7.10
2023-04-09T22:13:58.628Z,6.57
2023-04-09T22:16:26.375Z,6.07
2023-04-09T22:18:54.193Z,6.30
2023-04-09T22:21:21.637Z,7.07
2023-04-09T22:23:48.331Z,8.63
2023-04-09T22:26:15.060Z,5.30
2023-04-09T22:28:41.630Z,10.13
2023-04-09T22:31:08.562Z,8.27
2023-04-09T22:33:35.444Z,6.23
2023-04-09T22:36:02.345Z,13.47
2023-04-09T22:38:29.105Z,8.77
2023-04-09T22:40:56.067Z,6.23
2023-04-09T22:43:23.273Z,7.00
2023-04-09T22:45:52.110Z,9.37
2023-04-09T22:48:19.725Z,7.77
2023-04-09T22:50:47.078Z,6.70
2023-04-09T22:53:20.848Z,7.50
2023-04-09T22:55:50.860Z,6.30
2023-04-09T22:58:18.800Z,6.57
2023-04-09T23:00:47.183Z,6.47
2023-04-09T23:03:14.345Z,7.63
2023-04-09T23:05:41.215Z,7.53
2023-04-09T23:08:08.021Z,8.23
2023-04-09T23:10:34.917Z,6.60
2023-04-09T23:13:02.216Z,6.13
2023-04-09T23:15:28.898Z,5.20
2023-04-09T23:17:56.213Z,5.93
2023-04-09T23:20:23.296Z,4.57
2023-04-09T23:22:50.321Z,6.40
2023-04-09T23:25:17.315Z,5.40
2023-04-09T23:27:44.230Z,6.77
2023-04-09T23:30:11.626Z,4.83
2023-04-09T23:32:38.433Z,4.80
2023-04-09T23:35:05.509Z,7.43
2023-04-09T23:37:32.226Z,4.90
2023-04-09T23:39:58.876Z,4.60
2023-04-09T23:42:29.928Z,5.37
2023-04-09T23:44:56.559Z,5.47
2023-04-09T23:47:23.258Z,4.37
2023-04-09T23:49:50.031Z,6.53
2023-04-09T23:52:16.654Z,4.90
2023-04-09T23:54:49.184Z,5.87
2023-04-09T23:57:16.207Z,5.67
2023-04-09T23:59:42.869Z,6.63
